Flight Track Log - Related Links

Times and Time Zones

All times are in EDT time to prevent confusion due to time zone crossing. See the SWA183 flight status page for this flight to view local times or setup timezone preferences in your user account.


Time Position Orientation Groundspeed Altitude Reporting Facility
EDT Latitude Longitude Course Direction KTS MPH feet Rate Location/Type
Fri 10:08:57 AM 41.8167 -87.7333 197° South 216 249 2,900  Level Chicago TRACON
Fri 10:09:31 AM 41.8081 -87.7169 125° Southeast 232 267 3,200 1,313 Climbing Chicago Center
Fri 10:10:33 AM 41.7289 -87.7161 180° South 239 275 5,000 968 Climbing Chicago Center
Fri 10:11:35 AM 41.6597 -87.7228 184° South 258 297 5,200 1,887 Climbing Chicago Center
Fri 10:12:37 AM 41.5994 -87.7903 220° Southwest 282 325 8,900 3,242 Climbing Chicago Center
Fri 10:13:39 AM 41.5383 -87.8664 223° Southwest 298 343 11,900 2,226 Climbing Chicago Center
Fri 10:14:00 AM 41.1569 -88.0972 197° South  Level FlightAware Approximate
Fri 10:14:41 AM 41.4700 -87.9511 223° Southwest 332 382 13,500  Level Chicago Center
Fri 10:15:43 AM 41.3922 -88.0450 222° Southwest 356 410 16,800 2,903 Climbing Chicago Center
Fri 10:16:45 AM 41.2775 -88.0733 191° South 391 450 19,500 2,274 Climbing Chicago Center
Fri 10:17:47 AM 41.1694 -88.1083 194° South 400 460 21,500 1,694 Climbing Chicago Center
Fri 10:18:49 AM 41.0286 -88.1478 192° South 421 484 23,000 1,403 Climbing Chicago Center
Fri 10:19:51 AM 40.9114 -88.1792 191° South 428 493 24,400 1,728 Climbing Chicago Center
Fri 10:20:54 AM 40.7900 -88.2122 192° South 442 509 26,600 1,680 Climbing Chicago Center
Fri 10:21:56 AM 40.6628 -88.2408 190° South 460 529 27,900 1,403 Climbing Chicago Center
Fri 10:22:58 AM 40.5286 -88.2739 191° South 485 558 29,500 1,839 Climbing Chicago Center
Fri 10:24:00 AM 40.3647 -88.3139 191° South 501 577 31,700 2,177 Climbing Chicago Center
Fri 10:25:02 AM 40.2289 -88.3453 190° South 499 574 34,000 1,984 Climbing Chicago Center
Fri 10:26:04 AM 40.0892 -88.3794 191° South 487 560 35,800 1,694 Climbing Chicago Center
Fri 10:27:06 AM 39.9569 -88.4128 191° South 481 554 37,500 1,065 Climbing Chicago Center
Fri 10:28:08 AM 39.8269 -88.4431 190° South 475 547 38,000 254 Climbing Chicago Center
Fri 10:29:04 AM 39.7206 -88.4686 190° South 477 549 38,000  Level Kansas City Center
Fri 10:30:08 AM 39.5719 -88.5033 190° South 483 556 38,000  Level Kansas City Center
Fri 10:31:09 AM 39.4383 -88.5369 191° South 485 558 38,000  Level Kansas City Center
Fri 10:32:10 AM 39.3081 -88.5656 190° South 480 552 38,000  Level Kansas City Center
Fri 10:33:13 AM 39.1508 -88.6025 190° South 478 550 38,000  Level Kansas City Center
Fri 10:34:17 AM 39.0283 -88.6314 190° South 478 550 38,000  Level Kansas City Center
Fri 10:35:17 AM 38.8981 -88.6617 190° South 477 549 38,000  Level Kansas City Center
Fri 10:36:21 AM 38.7667 -88.6922 190° South 477 549 38,000  Level Kansas City Center
Fri 10:37:22 AM 38.6350 -88.7219 190° South 478 550 38,000  Level Kansas City Center
Fri 10:38:22 AM 38.4697 -88.7611 191° South 482 555 38,000  Level Kansas City Center
Fri 10:39:25 AM 38.3394 -88.7911 190° South 479 551 38,000  Level Kansas City Center
Fri 10:40:29 AM 38.2147 -88.8172 189° South 476 548 38,000  Level Kansas City Center
Fri 10:41:30 AM 38.0858 -88.8472 190° South 473 544 38,000  Level Kansas City Center
Fri 10:42:31 AM 37.9564 -88.8753 190° South 472 543 38,000  Level Kansas City Center
Fri 10:43:34 AM 37.8275 -88.9047 190° South 471 542 38,000  Level Kansas City Center
Fri 10:44:34 AM 37.6878 -88.9358 190° South 464 534 38,000  Level Kansas City Center
Fri 10:45:38 AM 37.5597 -88.9653 190° South 466 536 38,000  Level Kansas City Center
Fri 10:46:39 AM 37.4319 -88.9936 190° South 465 535 38,000  Level Kansas City Center
Fri 10:47:33 AM 37.3122 -89.0244 192° South 466 536 38,000  Level Memphis Center
Fri 10:48:32 AM 37.1833 -89.0550 191° South 466 536 38,000  Level Memphis Center
Fri 10:49:32 AM 37.0586 -89.0806 189° South 466 536 38,000  Level Memphis Center
Fri 10:50:32 AM 36.9297 -89.1086 190° South 466 536 38,000  Level Memphis Center
Fri 10:51:33 AM 36.7925 -89.1367 189° South 466 536 38,000 150 Level Memphis Center
Fri 10:52:32 AM 36.6614 -89.1644 190° South 471 542 38,300 650 Climbing Memphis Center
Fri 10:53:33 AM 36.5303 -89.1922 190° South 471 542 39,300 850 Climbing Memphis Center
Fri 10:54:32 AM 36.3972 -89.2147 188° South 486 559 40,000 353 Climbing Memphis Center
Fri 10:55:32 AM 36.2600 -89.2475 191° South 499 574 40,000  Level Memphis Center
Fri 10:56:32 AM 36.1331 -89.2775 191° South 493 567 40,000  Level Memphis Center
Fri 10:57:32 AM 36.0206 -89.3022 190° South 478 550 40,000  Level Memphis Center
Fri 10:58:32 AM 35.8936 -89.3294 190° South 467 537 40,000  Level Memphis Center
Fri 10:59:32 AM 35.7667 -89.3567 190° South 467 537 40,000  Level Memphis Center
Fri 11:00:32 AM 35.6356 -89.3864 190° South 447 514 40,000  Level Memphis Center
Fri 11:01:32 AM 35.5044 -89.4133 189° South 456 525 40,000  Level Memphis Center
Fri 11:02:33 AM 35.3772 -89.4378 189° South 469 540 40,000  Level Memphis Center
Fri 11:03:32 AM 35.2503 -89.4647 190° South 469 540 40,000  Level Memphis Center
Fri 11:04:32 AM 35.1211 -89.4889 189° South 469 540 40,000  Level Memphis Center
Fri 11:05:32 AM 34.9919 -89.5156 190° South 469 540 40,000  Level Memphis Center
Fri 11:06:33 AM 34.8753 -89.5344 188° South 469 540 40,000  Level Memphis Center
Fri 11:07:32 AM 34.7419 -89.5636 190° South 475 547 40,000  Level Memphis Center
Fri 11:08:32 AM 34.6128 -89.5950 191° South 480 552 40,000  Level Memphis Center
Fri 11:09:32 AM 34.4731 -89.6264 190° South 470 541 40,000  Level Memphis Center
Fri 11:10:32 AM 34.3461 -89.6528 190° South 465 535 40,000  Level Memphis Center
Fri 11:11:32 AM 34.2208 -89.6789 190° South 465 535 40,000  Level Memphis Center
Fri 11:12:32 AM 34.0936 -89.7050 190° South 470 541 40,000  Level Memphis Center
Fri 11:13:32 AM 33.9667 -89.7311 190° South 470 541 40,000  Level Memphis Center
Fri 11:14:33 AM 33.8372 -89.7569 189° South 470 541 40,000  Level Memphis Center
Fri 11:15:32 AM 33.7142 -89.7853 191° South 459 528 40,000  Level Memphis Center
Fri 11:16:32 AM 33.5872 -89.8111 190° South 459 528 40,000  Level Memphis Center
Fri 11:17:32 AM 33.4578 -89.8392 190° South 472 543 40,000  Level Memphis Center
Fri 11:18:32 AM 33.3306 -89.8625 189° South 472 543 40,000  Level Memphis Center
Fri 11:19:32 AM 33.2014 -89.8906 190° South 467 537 40,000  Level Memphis Center
Fri 11:20:33 AM 33.0719 -89.9183 190° South 467 537 40,000  Level Memphis Center
Fri 11:21:33 AM 32.9508 -89.9339 186° South 481 554 40,000  Level Memphis Center
Fri 11:22:33 AM 32.8175 -89.9692 193° South 486 559 40,000  Level Memphis Center
Fri 11:23:33 AM 32.6922 -89.9894 188° South 481 554 40,000 -200 Level Memphis Center
Fri 11:24:33 AM 32.5669 -90.0147 190° South 470 541 39,600 -706 Descending Memphis Center
Fri 11:25:32 AM 32.4397 -90.0372 188° South 465 535 38,600 -958 Descending Memphis Center
Fri 11:26:32 AM 32.3144 -90.0622 190° South 465 535 37,700 -1,250 Descending Memphis Center
Fri 11:27:32 AM 32.1936 -90.0872 190° South 460 529 36,100 -1,300 Descending Memphis Center
Fri 11:28:32 AM 32.0578 -90.1122 189° South 454 522 35,100 -1,955 Descending Memphis Center
Fri 11:29:44 AM 31.9189 -90.1392 189° South 452 520 31,800 -2,597 Descending Houston Center
Fri 11:30:46 AM 31.7922 -90.1636 189° South 461 531 29,300 -2,081 Descending Houston Center
Fri 11:31:48 AM 31.6706 -90.1875 189° South 447 514 27,500 -1,355 Descending Houston Center
Fri 11:32:50 AM 31.5522 -90.2106 189° South 435 501 26,500 -1,065 Descending Houston Center
Fri 11:33:52 AM 31.4119 -90.2383 190° South 428 493 25,300 -1,065 Descending Houston Center
Fri 11:34:54 AM 31.2950 -90.2581 188° South 425 489 24,300 -1,452 Descending Houston Center
Fri 11:35:56 AM 31.1786 -90.2489 176° South 422 486 22,300 -1,984 Descending Houston Center
Fri 11:36:58 AM 31.0672 -90.2411 177° South 406 467 20,200 -1,968 Descending Houston Center
Fri 11:38:01 AM 30.9594 -90.2331 176° South 391 450 18,200 -2,147 Descending Houston Center
Fri 11:38:33 AM 30.8819 -90.2269 176° South 382 440 16,800 -2,419 Descending Houston Center
Fri 11:39:03 AM 30.8331 -90.2239 177° South 381 438 15,700 -2,022 Descending Houston Center
Fri 11:40:05 AM 30.7314 -90.2119 174° South 371 427 13,700 -1,925 Descending Houston Center
Fri 11:41:17 AM 30.6094 -90.1944 173° South 361 415 11,400 -1,548 Descending Houston Center
Fri 11:42:09 AM 30.5344 -90.1844 173° South 358 412 10,500 -789 Descending Houston Center
Fri 11:43:11 AM 30.4453 -90.1697 172° South 338 389 9,900 -968 Descending Houston Center
Fri 11:44:13 AM 30.3428 -90.1536 172° South 321 369 8,500 -1,258 Descending Houston Center
Fri 11:45:15 AM 30.2589 -90.1375 171° South 313 360 7,300 -1,248 Descending Houston Center
Fri 11:46:18 AM 30.1783 -90.1264 173° South 302 348 5,900 -1,385 Descending Houston Center
Fri 11:46:33 AM 30.1478 -90.1317 188° South 290 334 5,500 -1,355 Descending Houston Center
Fri 11:47:20 AM 30.1011 -90.1428 192° South 288 331 4,500 -1,433 Descending Houston Center
Fri 11:47:40 AM 30.0647 -90.1494 189° South 282 325 3,900 -1,258 Descending Houston Center
Fri 11:48:22 AM 30.0236 -90.1569 189° South 284 327 3,200 -519 Descending Houston Center
Fri 11:49:24 AM 29.9400 -90.1689 187° South 230 265 3,000 -466 Descending Houston Center
Fri 11:50:18 AM 29.8969 -90.1972 210° Southwest 185 213 2,300 -722 Descending Houston Center
Fri 11:51:37 AM 29.9156 -90.2564 290° West 150 173 1,400 -682 Descending Houston Center
Fri 11:52:30 AM 29.9439 -90.2658 344° North 160 184 800 -470 Descending Houston Center
Fri 11:53:32 AM 29.9778 -90.2561 14° North 150 173 500 -290 Descending Houston Center

Login

Don't have an account? Register now (free) for customized features, flight alerts, and more!